createdAt,value
2018-06-20T00:00:15.683Z,2.70
2018-06-20T00:02:44.667Z,3.10
2018-06-20T00:05:13.593Z,2.90
2018-06-20T00:07:42.553Z,2.50
2018-06-20T00:10:11.470Z,2.80
2018-06-20T00:12:40.475Z,2.70
2018-06-20T00:15:09.434Z,2.73
2018-06-20T00:17:38.386Z,2.97
2018-06-20T00:20:07.310Z,3.03
2018-06-20T00:22:36.265Z,3.10
2018-06-20T00:25:05.193Z,3.03
2018-06-20T00:27:34.186Z,3.07
2018-06-20T00:30:03.154Z,3.43
2018-06-20T00:32:32.134Z,2.77
2018-06-20T00:35:01.103Z,3.23
2018-06-20T00:37:30.082Z,2.83
2018-06-20T00:39:59.003Z,3.00
2018-06-20T00:42:27.982Z,2.93
2018-06-20T00:44:56.895Z,3.20
2018-06-20T00:47:25.863Z,2.77
2018-06-20T00:49:54.803Z,2.90
2018-06-20T00:52:23.769Z,3.50
2018-06-20T00:54:52.693Z,2.80
2018-06-20T00:57:21.674Z,3.40
2018-06-20T00:59:50.653Z,3.00
2018-06-20T01:02:19.617Z,3.20
2018-06-20T01:04:48.542Z,2.97
2018-06-20T01:07:17.510Z,3.30
2018-06-20T01:09:46.479Z,3.20
2018-06-20T01:12:15.445Z,2.87
2018-06-20T01:14:44.361Z,3.40
2018-06-20T01:17:14.242Z,3.60
2018-06-20T01:19:43.214Z,3.10
2018-06-20T01:22:12.136Z,3.90
2018-06-20T01:24:41.093Z,3.50
2018-06-20T01:27:10.027Z,3.10
2018-06-20T01:29:38.993Z,3.17
2018-06-20T01:32:07.922Z,2.80
2018-06-20T01:34:36.887Z,2.90
2018-06-20T01:37:05.853Z,3.20
2018-06-20T01:39:34.821Z,3.10
2018-06-20T01:42:03.754Z,2.93
2018-06-20T01:44:32.726Z,3.20
2018-06-20T01:47:01.658Z,3.50
2018-06-20T01:49:30.635Z,3.33
2018-06-20T01:51:59.574Z,3.23
2018-06-20T01:54:28.563Z,3.57
2018-06-20T01:56:57.504Z,3.43
2018-06-20T01:59:26.482Z,3.40
2018-06-20T02:01:55.465Z,3.40
2018-06-20T02:04:24.453Z,3.50
2018-06-20T02:06:53.390Z,4.27
2018-06-20T02:09:22.364Z,3.30
2018-06-20T02:11:51.312Z,3.40
2018-06-20T02:14:20.299Z,3.27
2018-06-20T02:16:49.221Z,3.03
2018-06-20T02:19:18.213Z,2.90
2018-06-20T02:21:52.153Z,3.73
2018-06-20T02:24:21.127Z,3.40
2018-06-20T02:26:50.070Z,3.33
2018-06-20T02:29:19.042Z,3.50
2018-06-20T02:31:48.102Z,3.17
2018-06-20T02:34:17.047Z,3.63
2018-06-20T02:36:46.175Z,3.23
2018-06-20T02:39:15.075Z,3.63
2018-06-20T02:41:44.174Z,3.17
2018-06-20T02:44:13.154Z,3.77
2018-06-20T02:46:42.191Z,3.23
2018-06-20T02:49:11.176Z,3.00
2018-06-20T02:51:40.173Z,3.47
2018-06-20T02:54:09.155Z,2.90
2018-06-20T02:56:38.142Z,3.30
2018-06-20T02:59:07.230Z,3.60
2018-06-20T03:01:36.247Z,3.00
2018-06-20T03:04:05.211Z,3.60
2018-06-20T03:06:34.294Z,2.97
2018-06-20T03:09:07.316Z,3.50
2018-06-20T03:11:36.327Z,3.10
2018-06-20T03:14:05.332Z,3.87
2018-06-20T03:16:34.323Z,3.20
2018-06-20T03:19:03.343Z,3.50
2018-06-20T03:21:32.355Z,3.80
2018-06-20T03:24:01.311Z,3.50
2018-06-20T03:26:30.306Z,3.73
2018-06-20T03:28:59.313Z,3.40
2018-06-20T03:31:28.696Z,3.80
2018-06-20T03:33:57.850Z,3.30
2018-06-20T03:36:27.203Z,4.03
2018-06-20T03:38:56.157Z,3.63
2018-06-20T03:41:25.183Z,3.47
2018-06-20T03:43:54.155Z,3.20
2018-06-20T03:46:23.165Z,3.93
2018-06-20T03:48:52.122Z,3.37
2018-06-20T03:51:21.149Z,3.77
2018-06-20T03:53:50.095Z,4.03
2018-06-20T03:56:19.046Z,3.03
2018-06-20T03:58:48.122Z,3.70
2018-06-20T04:01:17.087Z,3.70
2018-06-20T04:03:46.123Z,3.90
2018-06-20T04:06:15.087Z,3.23
2018-06-20T04:08:44.098Z,3.70
2018-06-20T04:11:13.084Z,3.50
2018-06-20T04:13:42.097Z,3.70
2018-06-20T04:16:11.249Z,3.83
2018-06-20T04:18:43.163Z,3.23
2018-06-20T04:21:16.314Z,3.43
2018-06-20T04:23:45.362Z,3.50
2018-06-20T04:26:14.611Z,3.47
2018-06-20T04:28:43.604Z,4.10
2018-06-20T04:31:12.596Z,4.10
2018-06-20T04:33:41.613Z,3.50
2018-06-20T04:36:10.602Z,3.60
2018-06-20T04:38:39.669Z,3.60
2018-06-20T04:41:08.714Z,3.10
2018-06-20T04:43:37.743Z,4.03
2018-06-20T04:46:06.751Z,3.07
2018-06-20T04:48:35.761Z,3.40
2018-06-20T04:51:04.714Z,3.67
2018-06-20T04:53:33.783Z,4.27
2018-06-20T04:56:02.750Z,3.60
2018-06-20T04:58:31.762Z,3.50
2018-06-20T05:01:00.730Z,3.63
2018-06-20T05:03:29.782Z,3.33
2018-06-20T05:05:58.730Z,3.17
2018-06-20T05:08:27.734Z,4.03
2018-06-20T05:10:56.724Z,3.60
2018-06-20T05:13:25.799Z,3.63
2018-06-20T05:15:54.767Z,3.50
2018-06-20T05:18:23.743Z,3.60
2018-06-20T05:20:52.759Z,4.10
2018-06-20T05:23:21.727Z,3.77
2018-06-20T05:25:50.756Z,3.43
2018-06-20T05:28:19.721Z,3.50
2018-06-20T05:30:50.937Z,4.57
2018-06-20T05:33:20.390Z,3.47
2018-06-20T05:35:49.623Z,3.03
2018-06-20T05:38:18.695Z,3.60
2018-06-20T05:40:48.438Z,2.77
2018-06-20T05:43:17.377Z,3.37
2018-06-20T05:45:46.374Z,3.13
2018-06-20T05:48:15.340Z,2.67
2018-06-20T05:50:44.330Z,3.13
2018-06-20T05:53:13.314Z,3.10
2018-06-20T05:55:42.310Z,2.90
2018-06-20T05:58:11.233Z,3.20
2018-06-20T06:00:40.214Z,2.93
2018-06-20T06:03:09.163Z,2.90
2018-06-20T06:05:38.182Z,2.90
2018-06-20T06:08:10.218Z,2.60
2018-06-20T06:10:39.240Z,2.87
2018-06-20T06:13:08.212Z,2.70
2018-06-20T06:15:37.234Z,2.90
2018-06-20T06:18:06.281Z,2.97
2018-06-20T06:20:35.290Z,3.10
2018-06-20T06:23:04.221Z,2.53
2018-06-20T06:25:33.179Z,2.90
2018-06-20T06:28:02.125Z,2.80
2018-06-20T06:30:31.167Z,2.70
2018-06-20T06:33:00.110Z,2.40
2018-06-20T06:35:29.119Z,2.43
2018-06-20T06:37:58.094Z,3.33
2018-06-20T06:40:27.130Z,3.23
2018-06-20T06:42:56.086Z,2.83
2018-06-20T06:45:25.124Z,3.00
2018-06-20T06:47:54.125Z,2.90
2018-06-20T06:50:23.157Z,3.23
2018-06-20T06:52:52.133Z,3.60
2018-06-20T06:55:21.235Z,3.10
2018-06-20T06:57:50.255Z,5.27
2018-06-20T07:00:19.404Z,4.40
2018-06-20T07:02:48.387Z,4.10
2018-06-20T07:05:17.406Z,4.60
2018-06-20T07:07:46.378Z,4.70
2018-06-20T07:10:15.369Z,4.20
2018-06-20T07:12:44.366Z,4.13
2018-06-20T07:15:13.314Z,4.80
2018-06-20T07:17:42.345Z,4.30
2018-06-20T07:20:11.402Z,5.03
2018-06-20T07:22:40.425Z,4.80
2018-06-20T07:25:09.413Z,4.67
2018-06-20T07:27:38.422Z,4.47
2018-06-20T07:30:07.467Z,4.47
2018-06-20T07:32:36.449Z,4.47
2018-06-20T07:35:05.430Z,4.10
2018-06-20T07:37:34.482Z,4.47
2018-06-20T07:40:03.452Z,4.70
2018-06-20T07:42:32.466Z,4.30
2018-06-20T07:45:02.412Z,4.73
2018-06-20T07:47:31.402Z,4.27
2018-06-20T07:50:00.464Z,4.30
2018-06-20T07:52:29.448Z,4.57
2018-06-20T07:54:58.437Z,3.50
2018-06-20T07:57:27.490Z,4.30
2018-06-20T08:00:01.443Z,3.90
2018-06-20T08:02:46.523Z,3.47
2018-06-20T08:05:20.514Z,3.90
2018-06-20T08:07:54.561Z,3.43
2018-06-20T08:10:28.766Z,3.47
2018-06-20T08:14:05.876Z,3.77
2018-06-20T08:16:40.055Z,3.60
2018-06-20T08:19:14.245Z,3.70
2018-06-20T08:21:43.200Z,3.50
2018-06-20T08:24:12.358Z,3.67
2018-06-20T08:26:41.406Z,3.80
2018-06-20T08:29:10.437Z,4.13
2018-06-20T08:31:39.393Z,3.50
2018-06-20T08:34:08.426Z,3.30
2018-06-20T08:36:37.432Z,3.03
2018-06-20T08:39:08.054Z,3.40
2018-06-20T08:41:37.009Z,3.37
2018-06-20T08:44:05.990Z,3.47
2018-06-20T08:46:34.967Z,3.00
2018-06-20T08:49:04.012Z,3.60
2018-06-20T08:51:33.008Z,2.53
2018-06-20T08:54:01.978Z,2.70
2018-06-20T08:56:30.954Z,2.83
2018-06-20T08:58:59.943Z,2.30
2018-06-20T09:01:28.935Z,2.93
2018-06-20T09:04:02.996Z,2.73
2018-06-20T09:06:37.131Z,2.80
2018-06-20T09:09:12.928Z,2.57
2018-06-20T09:11:47.090Z,2.83
2018-06-20T09:14:16.151Z,2.80
2018-06-20T09:16:50.197Z,2.80
2018-06-20T09:19:24.455Z,2.30
2018-06-20T09:21:53.443Z,2.50
2018-06-20T09:24:22.584Z,2.43
2018-06-20T09:26:51.564Z,2.90
2018-06-20T09:29:20.525Z,2.63
2018-06-20T09:31:49.552Z,2.40
2018-06-20T09:34:18.604Z,2.60
2018-06-20T09:36:47.748Z,3.20
2018-06-20T09:39:16.718Z,2.73
2018-06-20T09:41:45.777Z,2.70
2018-06-20T09:44:14.787Z,3.07
2018-06-20T09:46:43.790Z,2.50
2018-06-20T09:49:12.738Z,2.10
2018-06-20T09:51:41.773Z,2.70
2018-06-20T09:54:10.815Z,2.70
2018-06-20T09:56:40.022Z,2.50
2018-06-20T09:59:14.294Z,2.40
2018-06-20T10:01:48.299Z,2.70
2018-06-20T10:04:22.415Z,2.63
2018-06-20T10:06:56.624Z,3.10
2018-06-20T10:09:30.654Z,2.17
2018-06-20T10:12:04.834Z,2.40
2018-06-20T10:14:33.798Z,2.60
2018-06-20T10:17:02.826Z,2.63
2018-06-20T10:19:31.865Z,2.40
2018-06-20T10:22:00.884Z,2.37
2018-06-20T10:24:29.874Z,2.30
2018-06-20T10:26:58.907Z,3.13
2018-06-20T10:29:27.904Z,2.57
2018-06-20T10:31:56.912Z,2.40
2018-06-20T10:34:25.896Z,2.20
2018-06-20T10:36:54.985Z,2.50
2018-06-20T10:39:23.965Z,2.20
2018-06-20T10:41:53.506Z,1.87
2018-06-20T10:44:22.497Z,2.00
2018-06-20T10:47:57.488Z,2.43
2018-06-20T10:50:26.542Z,1.70
2018-06-20T10:52:55.765Z,1.83
2018-06-20T10:55:25.485Z,1.93
2018-06-20T10:57:59.535Z,1.70
2018-06-20T11:00:34.016Z,2.03
2018-06-20T11:03:08.302Z,1.97
2018-06-20T11:05:42.434Z,2.07
2018-06-20T11:08:17.175Z,2.00
2018-06-20T11:10:51.295Z,2.10
2018-06-20T11:13:20.316Z,2.13
2018-06-20T11:15:50.019Z,1.63
2018-06-20T11:18:19.022Z,2.43
2018-06-20T11:20:53.250Z,2.30
2018-06-20T11:23:22.288Z,1.60
2018-06-20T11:25:51.248Z,1.77
2018-06-20T11:28:20.255Z,2.50
2018-06-20T11:30:49.275Z,1.70
2018-06-20T11:33:18.429Z,2.13
2018-06-20T11:35:47.407Z,1.90
2018-06-20T11:38:16.461Z,2.10
2018-06-20T11:40:45.424Z,1.90
2018-06-20T11:43:14.481Z,2.00
2018-06-20T11:45:48.560Z,2.13
2018-06-20T11:48:17.798Z,2.30
2018-06-20T11:50:46.921Z,1.90
2018-06-20T11:53:15.865Z,2.13
2018-06-20T11:55:46.020Z,1.93
2018-06-20T11:58:20.112Z,1.97
2018-06-20T12:00:54.204Z,1.70
2018-06-20T12:03:28.235Z,1.70
2018-06-20T12:06:02.389Z,2.20
2018-06-20T12:08:36.655Z,1.93
2018-06-20T12:11:10.759Z,1.80
2018-06-20T12:13:44.914Z,1.73
2018-06-20T12:16:18.941Z,2.40
2018-06-20T12:18:53.146Z,1.70
2018-06-20T12:21:27.244Z,1.57
2018-06-20T12:24:01.256Z,1.90
2018-06-20T12:26:35.255Z,1.50
2018-06-20T12:29:09.371Z,1.80
2018-06-20T12:31:43.586Z,1.63
2018-06-20T12:34:17.729Z,1.60
2018-06-20T12:36:51.748Z,1.70
2018-06-20T12:39:19.740Z,1.53
2018-06-20T12:41:53.803Z,1.73
2018-06-20T12:44:30.690Z,1.50
2018-06-20T12:47:01.521Z,2.23
2018-06-20T12:49:35.227Z,1.60
2018-06-20T12:52:04.235Z,1.70
2018-06-20T12:54:33.707Z,1.93
2018-06-20T12:57:02.679Z,1.67
2018-06-20T12:59:31.662Z,1.80
2018-06-20T13:02:00.637Z,2.00
2018-06-20T13:04:29.656Z,2.00
2018-06-20T13:06:58.636Z,2.00
2018-06-20T13:09:28.221Z,1.90
2018-06-20T13:11:58.049Z,1.70
2018-06-20T13:14:27.205Z,2.13
2018-06-20T13:16:56.478Z,1.77
2018-06-20T13:19:26.012Z,1.80
2018-06-20T13:21:56.293Z,1.60
2018-06-20T13:24:25.588Z,1.80
2018-06-20T13:26:55.557Z,1.90
2018-06-20T13:29:25.312Z,1.63
2018-06-20T13:31:59.679Z,1.40
2018-06-20T13:34:33.921Z,1.90
2018-06-20T13:37:08.282Z,1.40
2018-06-20T13:39:42.684Z,1.50
2018-06-20T13:43:16.881Z,2.10
2018-06-20T13:45:50.911Z,1.90
2018-06-20T13:48:25.153Z,2.00
2018-06-20T13:50:54.185Z,1.53
2018-06-20T13:53:23.234Z,1.90
2018-06-20T13:55:52.274Z,1.70
2018-06-20T13:58:21.270Z,1.50
2018-06-20T14:00:50.529Z,1.63
2018-06-20T14:03:20.895Z,1.80
2018-06-20T14:05:51.022Z,1.67
2018-06-20T14:08:20.920Z,1.50
2018-06-20T14:10:50.205Z,1.40
2018-06-20T14:13:19.958Z,1.50
2018-06-20T14:15:50.087Z,2.27
2018-06-20T14:18:20.378Z,1.57
2018-06-20T14:21:52.698Z,1.53
2018-06-20T14:24:21.775Z,1.80
2018-06-20T14:26:51.111Z,1.83
2018-06-20T14:29:20.090Z,1.67
2018-06-20T14:31:54.356Z,1.60
2018-06-20T14:34:28.414Z,1.70
2018-06-20T14:37:02.887Z,1.80
2018-06-20T14:39:36.963Z,1.60
2018-06-20T14:42:11.206Z,1.70
2018-06-20T14:44:40.155Z,2.30
2018-06-20T14:47:09.147Z,1.80
2018-06-20T14:49:38.201Z,1.50
2018-06-20T14:52:07.210Z,1.70
2018-06-20T14:54:36.182Z,1.77
2018-06-20T14:57:05.214Z,1.87
2018-06-20T14:59:34.187Z,1.80
2018-06-20T15:02:03.234Z,1.40
2018-06-20T15:04:32.209Z,1.60
2018-06-20T15:07:01.422Z,1.60
2018-06-20T15:09:30.426Z,1.67
2018-06-20T15:11:59.449Z,1.83
2018-06-20T15:14:28.448Z,1.50
2018-06-20T15:17:02.526Z,1.80
2018-06-20T15:19:31.754Z,1.30
2018-06-20T15:22:01.035Z,1.80
2018-06-20T15:24:30.986Z,1.87
2018-06-20T15:27:05.207Z,1.60
2018-06-20T15:29:39.210Z,1.60
2018-06-20T15:32:13.304Z,2.30
2018-06-20T15:34:47.522Z,1.70
2018-06-20T15:37:21.890Z,1.67
2018-06-20T15:39:51.084Z,1.73
2018-06-20T15:42:20.104Z,2.40
2018-06-20T15:44:49.386Z,1.50
2018-06-20T15:47:18.731Z,2.10
2018-06-20T15:49:48.531Z,1.80
2018-06-20T15:52:17.826Z,1.60
2018-06-20T15:54:47.164Z,1.67
2018-06-20T15:57:16.476Z,2.00
2018-06-20T15:59:46.354Z,2.27
2018-06-20T16:02:15.616Z,1.97
2018-06-20T16:04:44.625Z,1.50
2018-06-20T16:07:13.566Z,2.00
2018-06-20T16:09:47.622Z,1.50
2018-06-20T16:12:16.597Z,1.83
2018-06-20T16:14:45.619Z,1.90
2018-06-20T16:17:14.701Z,1.70
2018-06-20T16:19:48.778Z,1.90
2018-06-20T16:22:22.949Z,1.57
2018-06-20T16:24:57.013Z,1.83
2018-06-20T16:27:31.015Z,1.90
2018-06-20T16:30:05.189Z,1.87
2018-06-20T16:32:34.132Z,2.93
2018-06-20T16:35:03.544Z,2.03
2018-06-20T16:37:32.549Z,1.60
2018-06-20T16:40:01.570Z,1.50
2018-06-20T16:42:30.558Z,1.83
2018-06-20T16:44:59.592Z,1.87
2018-06-20T16:47:28.593Z,1.83
2018-06-20T16:49:57.615Z,1.73
2018-06-20T16:52:26.691Z,1.90
2018-06-20T16:55:01.879Z,1.50
2018-06-20T16:57:30.937Z,1.47
2018-06-20T17:00:00.112Z,1.60
2018-06-20T17:02:35.734Z,2.20
2018-06-20T17:05:04.770Z,1.70
2018-06-20T17:07:33.752Z,1.63
2018-06-20T17:10:02.786Z,1.90
2018-06-20T17:12:37.070Z,1.73
2018-06-20T17:15:11.246Z,2.10
2018-06-20T17:17:45.585Z,2.17
2018-06-20T17:20:19.623Z,1.83
2018-06-20T17:22:53.814Z,1.50
2018-06-20T17:25:32.306Z,1.87
2018-06-20T17:28:01.290Z,2.00
2018-06-20T17:30:30.378Z,1.97
2018-06-20T17:32:59.345Z,1.80
2018-06-20T17:35:28.361Z,1.73
2018-06-20T17:37:57.350Z,1.90
2018-06-20T17:40:26.367Z,1.73
2018-06-20T17:42:55.401Z,1.60
2018-06-20T17:45:24.429Z,1.80
2018-06-20T17:47:53.490Z,1.80
2018-06-20T17:50:22.454Z,2.17
2018-06-20T17:52:51.455Z,1.77
2018-06-20T17:55:20.423Z,1.50
2018-06-20T17:57:55.748Z,1.70
2018-06-20T18:00:24.721Z,1.93
2018-06-20T18:02:53.769Z,2.00
2018-06-20T18:05:27.868Z,2.30
2018-06-20T18:08:01.962Z,1.80
2018-06-20T18:10:36.166Z,1.73
2018-06-20T18:13:05.437Z,2.17
2018-06-20T18:15:39.616Z,1.80
2018-06-20T18:18:08.622Z,1.70
2018-06-20T18:20:37.610Z,2.00
2018-06-20T18:23:06.623Z,1.67
2018-06-20T18:25:35.618Z,1.90
2018-06-20T18:28:04.656Z,2.10
2018-06-20T18:30:33.649Z,1.63
2018-06-20T18:33:02.658Z,1.90
2018-06-20T18:35:31.620Z,1.87
2018-06-20T18:38:00.647Z,1.70
2018-06-20T18:40:29.624Z,1.70
2018-06-20T18:42:58.628Z,1.83
2018-06-20T18:45:27.666Z,1.60
2018-06-20T18:48:01.659Z,1.93
2018-06-20T18:50:30.633Z,1.60
2018-06-20T18:52:59.660Z,1.80
2018-06-20T18:55:28.651Z,2.10
2018-06-20T18:58:02.716Z,1.80
2018-06-20T19:00:36.889Z,1.90
2018-06-20T19:03:11.092Z,2.03
2018-06-20T19:05:45.078Z,1.97
2018-06-20T19:08:19.134Z,2.00
2018-06-20T19:10:48.121Z,1.87
2018-06-20T19:13:17.187Z,2.00
2018-06-20T19:15:46.155Z,2.00
2018-06-20T19:18:15.150Z,2.10
2018-06-20T19:20:44.153Z,1.67
2018-06-20T19:23:13.162Z,2.03
2018-06-20T19:25:42.223Z,2.10
2018-06-20T19:28:11.281Z,1.87
2018-06-20T19:30:40.241Z,2.00
2018-06-20T19:33:09.236Z,1.63
2018-06-20T19:35:38.247Z,2.00
2018-06-20T19:38:07.239Z,1.93
2018-06-20T19:40:36.239Z,2.07
2018-06-20T19:43:05.195Z,2.40
2018-06-20T19:45:34.203Z,2.10
2018-06-20T19:48:03.235Z,1.70
2018-06-20T19:50:32.237Z,2.10
2018-06-20T19:53:01.195Z,2.10
2018-06-20T19:55:30.192Z,1.70
2018-06-20T19:57:59.140Z,2.17
2018-06-20T20:00:28.124Z,1.97
2018-06-20T20:02:57.082Z,1.90
2018-06-20T20:05:26.123Z,1.77
2018-06-20T20:07:55.329Z,2.50
2018-06-20T20:10:24.351Z,2.27
2018-06-20T20:12:53.617Z,2.17
2018-06-20T20:15:22.617Z,2.07
2018-06-20T20:17:51.586Z,2.87
2018-06-20T20:20:20.692Z,1.63
2018-06-20T20:22:50.159Z,2.10
2018-06-20T20:25:19.107Z,2.17
2018-06-20T20:27:48.105Z,2.30
2018-06-20T20:30:17.042Z,2.17
2018-06-20T20:32:46.010Z,2.20
2018-06-20T20:35:14.968Z,2.53
2018-06-20T20:37:44.007Z,2.00
2018-06-20T20:40:12.965Z,2.73
2018-06-20T20:42:42.662Z,2.40
2018-06-20T20:45:11.646Z,2.40
2018-06-20T20:47:40.645Z,2.70
2018-06-20T20:50:09.634Z,2.27
2018-06-20T20:52:38.692Z,2.97
2018-06-20T20:55:07.660Z,2.00
2018-06-20T20:57:36.674Z,2.53
2018-06-20T21:00:06.062Z,2.10
2018-06-20T21:02:35.139Z,2.37
2018-06-20T21:05:04.255Z,2.50
2018-06-20T21:07:33.314Z,2.13
2018-06-20T21:10:02.301Z,2.53
2018-06-20T21:12:31.330Z,1.93
2018-06-20T21:15:00.297Z,2.50
2018-06-20T21:17:29.373Z,2.60
2018-06-20T21:19:58.378Z,2.37
2018-06-20T21:22:27.378Z,2.77
2018-06-20T21:24:56.467Z,2.23
2018-06-20T21:27:25.493Z,2.50
2018-06-20T21:29:54.474Z,2.40
2018-06-20T21:32:23.490Z,2.50
2018-06-20T21:34:52.491Z,2.33
2018-06-20T21:37:21.518Z,2.33
2018-06-20T21:39:50.476Z,3.07
2018-06-20T21:42:19.491Z,2.83
2018-06-20T21:44:48.465Z,2.53
2018-06-20T21:47:17.464Z,2.50
2018-06-20T21:49:46.438Z,2.77
2018-06-20T21:52:15.446Z,2.70
2018-06-20T21:54:44.399Z,2.50
2018-06-20T21:57:13.434Z,2.63
2018-06-20T21:59:42.450Z,2.60
2018-06-20T22:02:11.470Z,2.70
2018-06-20T22:04:40.484Z,2.73
2018-06-20T22:07:09.444Z,2.30
2018-06-20T22:09:38.454Z,2.70
2018-06-20T22:12:07.443Z,2.80
2018-06-20T22:14:36.936Z,2.40
2018-06-20T22:17:06.442Z,2.20
2018-06-20T22:19:35.490Z,2.40
2018-06-20T22:22:04.494Z,2.50
2018-06-20T22:24:33.503Z,2.93
2018-06-20T22:27:02.486Z,2.60
2018-06-20T22:29:31.484Z,2.50
2018-06-20T22:32:00.470Z,2.80
2018-06-20T22:34:29.479Z,2.73
2018-06-20T22:36:58.445Z,2.73
2018-06-20T22:39:27.484Z,2.60
2018-06-20T22:41:56.443Z,2.50
2018-06-20T22:44:25.425Z,2.90
2018-06-20T22:46:54.379Z,2.80
2018-06-20T22:49:23.443Z,2.50
2018-06-20T22:51:52.403Z,2.90
2018-06-20T22:54:21.394Z,3.30
2018-06-20T22:56:50.365Z,2.60
2018-06-20T22:59:19.396Z,2.30
2018-06-20T23:01:48.356Z,2.70
2018-06-20T23:04:17.383Z,2.60
2018-06-20T23:06:46.318Z,2.37
2018-06-20T23:09:15.297Z,2.40
2018-06-20T23:11:47.763Z,2.47
2018-06-20T23:14:16.730Z,2.97
2018-06-20T23:16:45.737Z,2.70
2018-06-20T23:19:14.675Z,2.80
2018-06-20T23:21:43.931Z,2.53
2018-06-20T23:24:12.881Z,2.60
2018-06-20T23:26:41.879Z,2.40
2018-06-20T23:29:10.825Z,2.50
2018-06-20T23:31:39.820Z,2.57
2018-06-20T23:34:08.749Z,2.90
2018-06-20T23:36:37.773Z,2.90
2018-06-20T23:39:09.193Z,2.50
2018-06-20T23:41:38.645Z,2.43
2018-06-20T23:44:07.611Z,2.90
2018-06-20T23:46:36.666Z,2.80
2018-06-20T23:49:05.702Z,2.60
2018-06-20T23:51:34.715Z,2.50
2018-06-20T23:54:03.699Z,2.53
2018-06-20T23:56:32.719Z,2.70
2018-06-20T23:59:01.721Z,2.50
